sensor_id;sensor_type;location;lat;lon;timestamp;temperature;humidity
6114;DHT22;3087;48.392;10.836;2024-03-06T00:00:54;7.60;99.90
6114;DHT22;3087;48.392;10.836;2024-03-06T00:03:20;7.60;99.90
6114;DHT22;3087;48.392;10.836;2024-03-06T00:05:45;7.70;99.90
6114;DHT22;3087;48.392;10.836;2024-03-06T00:08:12;7.60;99.90
6114;DHT22;3087;48.392;10.836;2024-03-06T00:10:38;7.60;99.90
6114;DHT22;3087;48.392;10.836;2024-03-06T00:13:03;7.60;99.90
6114;DHT22;3087;48.392;10.836;2024-03-06T00:15:29;7.50;99.90
6114;DHT22;3087;48.392;10.836;2024-03-06T00:17:54;7.60;99.90
6114;DHT22;3087;48.392;10.836;2024-03-06T00:20:20;7.60;99.90
6114;DHT22;3087;48.392;10.836;2024-03-06T00:22:45;7.70;99.90
6114;DHT22;3087;48.392;10.836;2024-03-06T00:25:11;7.70;99.90
6114;DHT22;3087;48.392;10.836;2024-03-06T00:27:37;7.60;99.90
6114;DHT22;3087;48.392;10.836;2024-03-06T00:30:02;7.60;99.90
6114;DHT22;3087;48.392;10.836;2024-03-06T00:32:28;7.60;99.90
6114;DHT22;3087;48.392;10.836;2024-03-06T00:34:54;7.70;99.90
6114;DHT22;3087;48.392;10.836;2024-03-06T00:37:19;7.60;99.90
6114;DHT22;3087;48.392;10.836;2024-03-06T00:39:45;7.60;99.90
6114;DHT22;3087;48.392;10.836;2024-03-06T00:42:10;7.60;99.90
6114;DHT22;3087;48.392;10.836;2024-03-06T00:44:39;7.60;99.90
6114;DHT22;3087;48.392;10.836;2024-03-06T00:47:04;7.60;99.90
6114;DHT22;3087;48.392;10.836;2024-03-06T00:49:30;7.60;99.90
6114;DHT22;3087;48.392;10.836;2024-03-06T00:51:56;7.60;99.90
6114;DHT22;3087;48.392;10.836;2024-03-06T00:54:21;7.60;99.90
6114;DHT22;3087;48.392;10.836;2024-03-06T00:56:47;7.60;99.90
6114;DHT22;3087;48.392;10.836;2024-03-06T00:59:13;7.60;99.90
6114;DHT22;3087;48.392;10.836;2024-03-06T01:01:38;7.60;99.90
6114;DHT22;3087;48.392;10.836;2024-03-06T01:04:04;7.60;99.90
6114;DHT22;3087;48.392;10.836;2024-03-06T01:06:29;7.60;99.90
6114;DHT22;3087;48.392;10.836;2024-03-06T01:08:55;7.60;99.90
6114;DHT22;3087;48.392;10.836;2024-03-06T01:11:22;7.50;99.90
6114;DHT22;3087;48.392;10.836;2024-03-06T01:13:48;8.20;99.90
6114;DHT22;3087;48.392;10.836;2024-03-06T01:16:13;7.30;99.90
6114;DHT22;3087;48.392;10.836;2024-03-06T01:18:39;7.30;99.90
6114;DHT22;3087;48.392;10.836;2024-03-06T01:21:05;7.40;99.90
6114;DHT22;3087;48.392;10.836;2024-03-06T01:23:30;7.30;99.90
6114;DHT22;3087;48.392;10.836;2024-03-06T01:25:56;7.20;99.90
6114;DHT22;3087;48.392;10.836;2024-03-06T01:28:21;8.30;99.90
6114;DHT22;3087;48.392;10.836;2024-03-06T01:30:47;7.10;99.90
6114;DHT22;3087;48.392;10.836;2024-03-06T01:33:13;7.50;99.90
6114;DHT22;3087;48.392;10.836;2024-03-06T01:35:38;7.10;99.90
6114;DHT22;3087;48.392;10.836;2024-03-06T01:38:04;7.20;99.90
6114;DHT22;3087;48.392;10.836;2024-03-06T01:40:29;7.20;99.90
6114;DHT22;3087;48.392;10.836;2024-03-06T01:42:55;7.50;99.90
6114;DHT22;3087;48.392;10.836;2024-03-06T01:45:21;7.10;99.90
6114;DHT22;3087;48.392;10.836;2024-03-06T01:47:47;7.50;99.90
6114;DHT22;3087;48.392;10.836;2024-03-06T01:50:12;7.10;99.90
6114;DHT22;3087;48.392;10.836;2024-03-06T01:52:39;7.20;99.90
6114;DHT22;3087;48.392;10.836;2024-03-06T01:55:07;7.10;99.90
6114;DHT22;3087;48.392;10.836;2024-03-06T01:57:34;7.10;99.90
6114;DHT22;3087;48.392;10.836;2024-03-06T02:00:01;7.20;99.90
6114;DHT22;3087;48.392;10.836;2024-03-06T02:02:28;7.20;99.90
6114;DHT22;3087;48.392;10.836;2024-03-06T02:04:55;7.30;99.90
6114;DHT22;3087;48.392;10.836;2024-03-06T02:07:23;7.40;99.90
6114;DHT22;3087;48.392;10.836;2024-03-06T02:09:49;7.20;99.90
6114;DHT22;3087;48.392;10.836;2024-03-06T02:12:15;7.30;99.90
6114;DHT22;3087;48.392;10.836;2024-03-06T02:14:41;6.90;99.90
6114;DHT22;3087;48.392;10.836;2024-03-06T02:17:07;6.90;99.90
6114;DHT22;3087;48.392;10.836;2024-03-06T02:19:42;6.90;99.90
6114;DHT22;3087;48.392;10.836;2024-03-06T02:22:09;6.90;99.90
6114;DHT22;3087;48.392;10.836;2024-03-06T02:24:36;6.80;99.90
6114;DHT22;3087;48.392;10.836;2024-03-06T02:27:03;6.70;99.90
6114;DHT22;3087;48.392;10.836;2024-03-06T02:29:31;6.70;99.90
6114;DHT22;3087;48.392;10.836;2024-03-06T02:31:58;6.60;99.90
6114;DHT22;3087;48.392;10.836;2024-03-06T02:34:23;6.70;99.90
6114;DHT22;3087;48.392;10.836;2024-03-06T02:36:51;6.70;99.90
6114;DHT22;3087;48.392;10.836;2024-03-06T02:39:17;6.70;99.90
6114;DHT22;3087;48.392;10.836;2024-03-06T02:41:43;6.80;99.90
6114;DHT22;3087;48.392;10.836;2024-03-06T02:44:08;7.10;99.90
6114;DHT22;3087;48.392;10.836;2024-03-06T02:46:34;6.60;99.90
6114;DHT22;3087;48.392;10.836;2024-03-06T02:49:00;6.60;99.90
6114;DHT22;3087;48.392;10.836;2024-03-06T02:51:25;6.70;99.90
6114;DHT22;3087;48.392;10.836;2024-03-06T02:53:51;6.70;99.90
6114;DHT22;3087;48.392;10.836;2024-03-06T02:56:18;6.80;99.90
6114;DHT22;3087;48.392;10.836;2024-03-06T02:58:45;6.90;99.90
6114;DHT22;3087;48.392;10.836;2024-03-06T03:01:11;6.60;99.90
6114;DHT22;3087;48.392;10.836;2024-03-06T03:03:36;6.60;99.90
6114;DHT22;3087;48.392;10.836;2024-03-06T03:06:02;6.50;99.90
6114;DHT22;3087;48.392;10.836;2024-03-06T03:08:28;6.50;99.90
6114;DHT22;3087;48.392;10.836;2024-03-06T03:10:53;6.60;99.90
6114;DHT22;3087;48.392;10.836;2024-03-06T03:13:19;6.60;99.90
6114;DHT22;3087;48.392;10.836;2024-03-06T03:15:44;6.60;99.90
6114;DHT22;3087;48.392;10.836;2024-03-06T03:18:10;6.60;99.90
6114;DHT22;3087;48.392;10.836;2024-03-06T03:20:36;6.50;99.90
6114;DHT22;3087;48.392;10.836;2024-03-06T03:23:02;6.50;99.90
6114;DHT22;3087;48.392;10.836;2024-03-06T03:25:27;6.50;99.90
6114;DHT22;3087;48.392;10.836;2024-03-06T03:27:53;6.50;99.90
6114;DHT22;3087;48.392;10.836;2024-03-06T03:30:18;6.60;99.90
6114;DHT22;3087;48.392;10.836;2024-03-06T03:32:50;6.50;99.90
6114;DHT22;3087;48.392;10.836;2024-03-06T03:35:15;6.60;99.90
6114;DHT22;3087;48.392;10.836;2024-03-06T03:37:42;6.60;99.90
6114;DHT22;3087;48.392;10.836;2024-03-06T03:40:09;6.60;99.90
6114;DHT22;3087;48.392;10.836;2024-03-06T03:42:37;6.50;99.90
6114;DHT22;3087;48.392;10.836;2024-03-06T03:45:03;6.50;99.90
6114;DHT22;3087;48.392;10.836;2024-03-06T03:47:30;6.50;99.90
6114;DHT22;3087;48.392;10.836;2024-03-06T03:49:55;6.50;99.90
6114;DHT22;3087;48.392;10.836;2024-03-06T03:52:21;6.60;99.90
6114;DHT22;3087;48.392;10.836;2024-03-06T03:54:46;6.50;99.90
6114;DHT22;3087;48.392;10.836;2024-03-06T03:57:12;6.60;99.90
6114;DHT22;3087;48.392;10.836;2024-03-06T03:59:39;6.60;99.90
6114;DHT22;3087;48.392;10.836;2024-03-06T04:02:06;6.60;99.90
6114;DHT22;3087;48.392;10.836;2024-03-06T04:04:32;6.60;99.90
6114;DHT22;3087;48.392;10.836;2024-03-06T04:06:59;6.60;99.90
6114;DHT22;3087;48.392;10.836;2024-03-06T04:09:29;6.60;99.90
6114;DHT22;3087;48.392;10.836;2024-03-06T04:11:55;6.60;99.90
6114;DHT22;3087;48.392;10.836;2024-03-06T04:14:21;6.60;99.90
6114;DHT22;3087;48.392;10.836;2024-03-06T04:16:47;6.60;99.90
6114;DHT22;3087;48.392;10.836;2024-03-06T04:19:13;6.60;99.90
6114;DHT22;3087;48.392;10.836;2024-03-06T04:21:42;6.70;99.90
6114;DHT22;3087;48.392;10.836;2024-03-06T04:24:08;6.90;99.90
6114;DHT22;3087;48.392;10.836;2024-03-06T04:26:33;6.70;99.90
6114;DHT22;3087;48.392;10.836;2024-03-06T04:28:59;6.70;99.90
6114;DHT22;3087;48.392;10.836;2024-03-06T04:31:24;6.70;99.90
6114;DHT22;3087;48.392;10.836;2024-03-06T04:33:50;6.70;99.90
6114;DHT22;3087;48.392;10.836;2024-03-06T04:36:16;6.70;99.90
6114;DHT22;3087;48.392;10.836;2024-03-06T04:38:42;6.80;99.90
6114;DHT22;3087;48.392;10.836;2024-03-06T04:41:08;6.60;99.90
6114;DHT22;3087;48.392;10.836;2024-03-06T04:43:33;6.70;99.90
6114;DHT22;3087;48.392;10.836;2024-03-06T04:45:59;6.70;99.90
6114;DHT22;3087;48.392;10.836;2024-03-06T04:48:25;6.70;99.90
6114;DHT22;3087;48.392;10.836;2024-03-06T04:50:51;6.60;99.90
6114;DHT22;3087;48.392;10.836;2024-03-06T04:53:16;6.70;99.90
6114;DHT22;3087;48.392;10.836;2024-03-06T04:55:42;6.70;99.90
6114;DHT22;3087;48.392;10.836;2024-03-06T04:58:08;6.70;99.90
6114;DHT22;3087;48.392;10.836;2024-03-06T05:00:34;6.70;99.90
6114;DHT22;3087;48.392;10.836;2024-03-06T05:02:59;6.70;99.90
6114;DHT22;3087;48.392;10.836;2024-03-06T05:05:25;6.70;99.90
6114;DHT22;3087;48.392;10.836;2024-03-06T05:07:50;6.90;99.90
6114;DHT22;3087;48.392;10.836;2024-03-06T05:10:17;6.70;99.90
6114;DHT22;3087;48.392;10.836;2024-03-06T05:12:42;6.70;99.90
6114;DHT22;3087;48.392;10.836;2024-03-06T05:15:10;6.60;99.90
6114;DHT22;3087;48.392;10.836;2024-03-06T05:17:36;6.60;99.90
6114;DHT22;3087;48.392;10.836;2024-03-06T05:20:01;6.60;99.90
6114;DHT22;3087;48.392;10.836;2024-03-06T05:22:30;6.50;99.90
6114;DHT22;3087;48.392;10.836;2024-03-06T05:24:55;6.60;99.90
6114;DHT22;3087;48.392;10.836;2024-03-06T05:27:21;6.60;99.90
6114;DHT22;3087;48.392;10.836;2024-03-06T05:29:47;6.60;99.90
6114;DHT22;3087;48.392;10.836;2024-03-06T05:32:13;6.70;99.90
6114;DHT22;3087;48.392;10.836;2024-03-06T05:34:38;7.00;99.90
6114;DHT22;3087;48.392;10.836;2024-03-06T05:37:04;6.60;99.90
6114;DHT22;3087;48.392;10.836;2024-03-06T05:39:31;6.70;99.90
6114;DHT22;3087;48.392;10.836;2024-03-06T05:42:07;6.60;99.90
6114;DHT22;3087;48.392;10.836;2024-03-06T05:44:33;6.70;99.90
6114;DHT22;3087;48.392;10.836;2024-03-06T05:46:59;6.70;99.90
6114;DHT22;3087;48.392;10.836;2024-03-06T05:49:26;6.60;99.90
6114;DHT22;3087;48.392;10.836;2024-03-06T05:51:52;6.70;99.90
6114;DHT22;3087;48.392;10.836;2024-03-06T05:54:19;6.80;99.90
6114;DHT22;3087;48.392;10.836;2024-03-06T05:56:45;6.70;99.90
6114;DHT22;3087;48.392;10.836;2024-03-06T05:59:10;6.80;99.90
6114;DHT22;3087;48.392;10.836;2024-03-06T06:01:36;6.80;99.90
6114;DHT22;3087;48.392;10.836;2024-03-06T06:04:02;7.10;99.90
6114;DHT22;3087;48.392;10.836;2024-03-06T06:06:28;6.70;99.90
6114;DHT22;3087;48.392;10.836;2024-03-06T06:08:53;6.70;99.90
6114;DHT22;3087;48.392;10.836;2024-03-06T06:11:19;6.80;99.90
6114;DHT22;3087;48.392;10.836;2024-03-06T06:13:45;6.70;99.90
6114;DHT22;3087;48.392;10.836;2024-03-06T06:16:11;6.70;99.90
6114;DHT22;3087;48.392;10.836;2024-03-06T06:18:36;6.70;99.90
6114;DHT22;3087;48.392;10.836;2024-03-06T06:21:02;6.70;99.90
6114;DHT22;3087;48.392;10.836;2024-03-06T06:23:30;6.70;99.90
6114;DHT22;3087;48.392;10.836;2024-03-06T06:25:55;6.80;99.90
6114;DHT22;3087;48.392;10.836;2024-03-06T06:28:21;6.70;99.90
6114;DHT22;3087;48.392;10.836;2024-03-06T06:30:48;6.80;99.90
6114;DHT22;3087;48.392;10.836;2024-03-06T06:33:14;6.80;99.90
6114;DHT22;3087;48.392;10.836;2024-03-06T06:35:39;6.80;99.90
6114;DHT22;3087;48.392;10.836;2024-03-06T06:38:05;6.80;99.90
6114;DHT22;3087;48.392;10.836;2024-03-06T06:40:30;6.70;99.90
6114;DHT22;3087;48.392;10.836;2024-03-06T06:42:56;6.70;99.90
6114;DHT22;3087;48.392;10.836;2024-03-06T06:45:22;6.70;99.90
6114;DHT22;3087;48.392;10.836;2024-03-06T06:47:49;7.30;99.90
6114;DHT22;3087;48.392;10.836;2024-03-06T06:50:15;6.90;99.90
6114;DHT22;3087;48.392;10.836;2024-03-06T06:52:41;7.10;99.90
6114;DHT22;3087;48.392;10.836;2024-03-06T06:55:07;7.00;99.90
6114;DHT22;3087;48.392;10.836;2024-03-06T06:57:34;6.70;99.90
6114;DHT22;3087;48.392;10.836;2024-03-06T07:00:01;6.70;99.90
6114;DHT22;3087;48.392;10.836;2024-03-06T07:02:39;6.70;99.90
6114;DHT22;3087;48.392;10.836;2024-03-06T07:05:06;6.70;99.90
6114;DHT22;3087;48.392;10.836;2024-03-06T07:07:32;6.70;99.90
6114;DHT22;3087;48.392;10.836;2024-03-06T07:09:57;6.70;99.90
6114;DHT22;3087;48.392;10.836;2024-03-06T07:12:24;6.80;99.90
6114;DHT22;3087;48.392;10.836;2024-03-06T07:14:49;6.80;99.90
6114;DHT22;3087;48.392;10.836;2024-03-06T07:17:15;7.00;99.90
6114;DHT22;3087;48.392;10.836;2024-03-06T07:19:40;6.80;99.90
6114;DHT22;3087;48.392;10.836;2024-03-06T07:22:06;6.80;99.90
6114;DHT22;3087;48.392;10.836;2024-03-06T07:24:32;7.60;99.90
6114;DHT22;3087;48.392;10.836;2024-03-06T07:26:57;6.90;99.90
6114;DHT22;3087;48.392;10.836;2024-03-06T07:29:23;6.90;99.90
6114;DHT22;3087;48.392;10.836;2024-03-06T07:31:48;6.90;99.90
6114;DHT22;3087;48.392;10.836;2024-03-06T07:34:14;6.90;99.90
6114;DHT22;3087;48.392;10.836;2024-03-06T07:36:40;7.20;99.90
6114;DHT22;3087;48.392;10.836;2024-03-06T07:39:06;7.00;99.90
6114;DHT22;3087;48.392;10.836;2024-03-06T07:41:32;7.00;99.90
6114;DHT22;3087;48.392;10.836;2024-03-06T07:43:59;7.50;99.90
6114;DHT22;3087;48.392;10.836;2024-03-06T07:46:25;7.10;99.90
6114;DHT22;3087;48.392;10.836;2024-03-06T07:48:51;7.10;99.90
6114;DHT22;3087;48.392;10.836;2024-03-06T07:51:17;7.10;99.90
6114;DHT22;3087;48.392;10.836;2024-03-06T07:53:43;7.30;99.90
6114;DHT22;3087;48.392;10.836;2024-03-06T07:56:10;9.50;99.90
6114;DHT22;3087;48.392;10.836;2024-03-06T07:58:39;6.90;99.90
6114;DHT22;3087;48.392;10.836;2024-03-06T08:01:06;7.00;99.90
6114;DHT22;3087;48.392;10.836;2024-03-06T08:03:33;7.10;99.90
6114;DHT22;3087;48.392;10.836;2024-03-06T08:05:59;7.10;99.90
6114;DHT22;3087;48.392;10.836;2024-03-06T08:08:25;7.30;99.90
6114;DHT22;3087;48.392;10.836;2024-03-06T08:10:51;7.20;99.90
6114;DHT22;3087;48.392;10.836;2024-03-06T08:13:17;7.30;99.90
6114;DHT22;3087;48.392;10.836;2024-03-06T08:15:44;7.20;99.90
6114;DHT22;3087;48.392;10.836;2024-03-06T08:18:10;7.30;99.90
6114;DHT22;3087;48.392;10.836;2024-03-06T08:20:36;7.70;99.90
6114;DHT22;3087;48.392;10.836;2024-03-06T08:23:02;7.20;99.90
6114;DHT22;3087;48.392;10.836;2024-03-06T08:25:28;7.20;99.90
6114;DHT22;3087;48.392;10.836;2024-03-06T08:27:54;7.30;99.90
6114;DHT22;3087;48.392;10.836;2024-03-06T08:30:20;7.30;99.90
6114;DHT22;3087;48.392;10.836;2024-03-06T08:32:45;7.30;99.90
6114;DHT22;3087;48.392;10.836;2024-03-06T08:35:14;7.30;99.90
6114;DHT22;3087;48.392;10.836;2024-03-06T08:37:41;7.20;99.90
6114;DHT22;3087;48.392;10.836;2024-03-06T08:40:07;7.30;99.90
6114;DHT22;3087;48.392;10.836;2024-03-06T08:42:35;7.30;99.90
6114;DHT22;3087;48.392;10.836;2024-03-06T08:45:01;9.60;99.90
6114;DHT22;3087;48.392;10.836;2024-03-06T08:47:27;7.30;99.90
6114;DHT22;3087;48.392;10.836;2024-03-06T08:49:52;7.60;99.90
6114;DHT22;3087;48.392;10.836;2024-03-06T08:52:18;7.90;99.90
6114;DHT22;3087;48.392;10.836;2024-03-06T08:54:44;7.50;99.90
6114;DHT22;3087;48.392;10.836;2024-03-06T08:57:10;7.50;99.90
6114;DHT22;3087;48.392;10.836;2024-03-06T08:59:36;7.50;99.90
6114;DHT22;3087;48.392;10.836;2024-03-06T09:02:24;7.50;99.90
6114;DHT22;3087;48.392;10.836;2024-03-06T09:04:49;7.60;99.90
6114;DHT22;3087;48.392;10.836;2024-03-06T09:07:17;7.60;99.90
6114;DHT22;3087;48.392;10.836;2024-03-06T09:09:43;7.90;99.90
6114;DHT22;3087;48.392;10.836;2024-03-06T09:12:10;7.90;99.90
6114;DHT22;3087;48.392;10.836;2024-03-06T09:14:36;8.30;99.90
6114;DHT22;3087;48.392;10.836;2024-03-06T09:17:02;8.00;99.90
6114;DHT22;3087;48.392;10.836;2024-03-06T09:19:28;7.90;99.90
6114;DHT22;3087;48.392;10.836;2024-03-06T09:21:54;7.90;99.90
6114;DHT22;3087;48.392;10.836;2024-03-06T09:24:21;10.20;99.90
6114;DHT22;3087;48.392;10.836;2024-03-06T09:26:49;9.40;99.90
6114;DHT22;3087;48.392;10.836;2024-03-06T09:29:15;7.80;99.90
6114;DHT22;3087;48.392;10.836;2024-03-06T09:31:41;7.80;99.90
6114;DHT22;3087;48.392;10.836;2024-03-06T09:34:07;7.90;99.90
6114;DHT22;3087;48.392;10.836;2024-03-06T09:36:36;8.00;99.90
6114;DHT22;3087;48.392;10.836;2024-03-06T09:39:02;8.20;99.90
6114;DHT22;3087;48.392;10.836;2024-03-06T09:41:30;10.50;99.90
6114;DHT22;3087;48.392;10.836;2024-03-06T09:43:56;8.40;99.90
6114;DHT22;3087;48.392;10.836;2024-03-06T09:46:21;11.00;99.90
6114;DHT22;3087;48.392;10.836;2024-03-06T09:48:48;8.60;99.90
6114;DHT22;3087;48.392;10.836;2024-03-06T09:51:14;9.60;99.90
6114;DHT22;3087;48.392;10.836;2024-03-06T09:53:41;8.60;99.90
6114;DHT22;3087;48.392;10.836;2024-03-06T09:56:08;8.50;99.90
6114;DHT22;3087;48.392;10.836;2024-03-06T09:58:37;8.60;99.90
6114;DHT22;3087;48.392;10.836;2024-03-06T10:01:03;8.80;99.90
6114;DHT22;3087;48.392;10.836;2024-03-06T10:03:33;9.10;99.90
6114;DHT22;3087;48.392;10.836;2024-03-06T10:05:59;9.40;99.90
6114;DHT22;3087;48.392;10.836;2024-03-06T10:08:25;9.40;99.90
6114;DHT22;3087;48.392;10.836;2024-03-06T10:10:52;9.40;99.90
6114;DHT22;3087;48.392;10.836;2024-03-06T10:13:18;9.40;99.90
6114;DHT22;3087;48.392;10.836;2024-03-06T10:16:01;9.10;99.90
6114;DHT22;3087;48.392;10.836;2024-03-06T10:18:28;10.00;99.90
6114;DHT22;3087;48.392;10.836;2024-03-06T10:20:55;8.70;99.90
6114;DHT22;3087;48.392;10.836;2024-03-06T10:23:20;8.70;99.90
6114;DHT22;3087;48.392;10.836;2024-03-06T10:25:47;8.80;99.90
6114;DHT22;3087;48.392;10.836;2024-03-06T10:28:20;8.90;99.90
6114;DHT22;3087;48.392;10.836;2024-03-06T10:30:47;10.30;99.90
6114;DHT22;3087;48.392;10.836;2024-03-06T10:33:13;9.40;99.90
6114;DHT22;3087;48.392;10.836;2024-03-06T10:35:44;9.30;99.90
6114;DHT22;3087;48.392;10.836;2024-03-06T10:38:11;9.30;99.90
6114;DHT22;3087;48.392;10.836;2024-03-06T10:40:39;12.80;99.90
6114;DHT22;3087;48.392;10.836;2024-03-06T10:43:05;9.30;99.90
6114;DHT22;3087;48.392;10.836;2024-03-06T10:48:09;9.40;99.90
6114;DHT22;3087;48.392;10.836;2024-03-06T10:50:41;9.60;99.90
6114;DHT22;3087;48.392;10.836;2024-03-06T10:53:14;9.80;99.90
6114;DHT22;3087;48.392;10.836;2024-03-06T10:55:43;9.60;99.90
6114;DHT22;3087;48.392;10.836;2024-03-06T10:58:12;9.60;99.90
6114;DHT22;3087;48.392;10.836;2024-03-06T11:00:44;11.20;99.90
6114;DHT22;3087;48.392;10.836;2024-03-06T11:03:12;9.20;99.90
6114;DHT22;3087;48.392;10.836;2024-03-06T11:05:39;9.10;99.90
6114;DHT22;3087;48.392;10.836;2024-03-06T11:08:15;9.10;99.90
6114;DHT22;3087;48.392;10.836;2024-03-06T11:10:42;9.40;99.90
6114;DHT22;3087;48.392;10.836;2024-03-06T11:15:47;9.00;99.90
6114;DHT22;3087;48.392;10.836;2024-03-06T11:24:14;9.40;99.90
6114;DHT22;3087;48.392;10.836;2024-03-06T11:27:10;9.40;99.90
6114;DHT22;3087;48.392;10.836;2024-03-06T11:30:06;9.60;99.90
6114;DHT22;3087;48.392;10.836;2024-03-06T11:33:00;9.70;99.90
6114;DHT22;3087;48.392;10.836;2024-03-06T11:35:30;10.10;99.90
6114;DHT22;3087;48.392;10.836;2024-03-06T11:37:56;9.60;99.90
6114;DHT22;3087;48.392;10.836;2024-03-06T11:40:25;9.70;99.90
6114;DHT22;3087;48.392;10.836;2024-03-06T11:42:50;9.70;99.90
6114;DHT22;3087;48.392;10.836;2024-03-06T11:45:18;10.00;99.90
6114;DHT22;3087;48.392;10.836;2024-03-06T11:48:00;9.80;99.90
6114;DHT22;3087;48.392;10.836;2024-03-06T11:50:27;9.90;99.90
6114;DHT22;3087;48.392;10.836;2024-03-06T11:52:53;10.70;99.90
6114;DHT22;3087;48.392;10.836;2024-03-06T11:55:21;10.40;99.90
6114;DHT22;3087;48.392;10.836;2024-03-06T11:57:47;10.30;99.90
6114;DHT22;3087;48.392;10.836;2024-03-06T12:00:13;10.10;99.90
6114;DHT22;3087;48.392;10.836;2024-03-06T12:02:40;10.10;99.90
6114;DHT22;3087;48.392;10.836;2024-03-06T12:05:07;10.10;99.90
6114;DHT22;3087;48.392;10.836;2024-03-06T12:10:13;9.70;99.90
6114;DHT22;3087;48.392;10.836;2024-03-06T12:12:40;9.60;99.90
6114;DHT22;3087;48.392;10.836;2024-03-06T12:15:09;9.50;99.90
6114;DHT22;3087;48.392;10.836;2024-03-06T12:17:49;9.50;99.90
6114;DHT22;3087;48.392;10.836;2024-03-06T12:20:16;9.40;99.90
6114;DHT22;3087;48.392;10.836;2024-03-06T12:22:48;9.40;99.90
6114;DHT22;3087;48.392;10.836;2024-03-06T12:25:25;9.30;99.90
6114;DHT22;3087;48.392;10.836;2024-03-06T12:27:54;9.40;99.90
6114;DHT22;3087;48.392;10.836;2024-03-06T12:30:21;9.50;99.90
6114;DHT22;3087;48.392;10.836;2024-03-06T12:33:00;9.50;99.90
6114;DHT22;3087;48.392;10.836;2024-03-06T12:35:29;9.40;99.90
6114;DHT22;3087;48.392;10.836;2024-03-06T12:37:55;9.30;99.90
6114;DHT22;3087;48.392;10.836;2024-03-06T12:40:21;9.30;99.90
6114;DHT22;3087;48.392;10.836;2024-03-06T12:42:47;9.20;99.90
6114;DHT22;3087;48.392;10.836;2024-03-06T12:45:13;11.40;99.90
6114;DHT22;3087;48.392;10.836;2024-03-06T12:47:43;9.40;99.90
6114;DHT22;3087;48.392;10.836;2024-03-06T12:50:09;10.50;99.90
6114;DHT22;3087;48.392;10.836;2024-03-06T12:52:36;9.40;99.90
6114;DHT22;3087;48.392;10.836;2024-03-06T12:55:02;9.40;99.90
6114;DHT22;3087;48.392;10.836;2024-03-06T12:57:31;9.50;99.90
6114;DHT22;3087;48.392;10.836;2024-03-06T12:59:56;9.60;99.90
6114;DHT22;3087;48.392;10.836;2024-03-06T13:02:22;9.70;99.90
6114;DHT22;3087;48.392;10.836;2024-03-06T13:04:48;9.80;99.90
6114;DHT22;3087;48.392;10.836;2024-03-06T13:07:14;9.90;99.90
6114;DHT22;3087;48.392;10.836;2024-03-06T13:09:40;9.90;99.90
6114;DHT22;3087;48.392;10.836;2024-03-06T13:12:05;10.60;99.90
6114;DHT22;3087;48.392;10.836;2024-03-06T13:14:31;9.80;99.90
6114;DHT22;3087;48.392;10.836;2024-03-06T13:16:58;9.80;99.90
6114;DHT22;3087;48.392;10.836;2024-03-06T13:19:23;9.70;99.90
6114;DHT22;3087;48.392;10.836;2024-03-06T13:21:49;9.90;99.90
6114;DHT22;3087;48.392;10.836;2024-03-06T13:24:14;9.50;99.90
6114;DHT22;3087;48.392;10.836;2024-03-06T13:26:40;9.60;99.90
6114;DHT22;3087;48.392;10.836;2024-03-06T13:29:07;9.40;99.90
6114;DHT22;3087;48.392;10.836;2024-03-06T13:31:32;10.20;99.90
6114;DHT22;3087;48.392;10.836;2024-03-06T13:34:00;9.30;99.90
6114;DHT22;3087;48.392;10.836;2024-03-06T13:36:25;10.60;99.90
6114;DHT22;3087;48.392;10.836;2024-03-06T13:38:51;9.30;99.90
6114;DHT22;3087;48.392;10.836;2024-03-06T13:41:17;9.30;99.90
6114;DHT22;3087;48.392;10.836;2024-03-06T13:43:43;9.30;99.90
6114;DHT22;3087;48.392;10.836;2024-03-06T13:46:09;9.40;99.90
6114;DHT22;3087;48.392;10.836;2024-03-06T13:48:34;9.20;99.90
6114;DHT22;3087;48.392;10.836;2024-03-06T13:51:01;10.20;99.90
6114;DHT22;3087;48.392;10.836;2024-03-06T13:53:27;9.20;99.90
6114;DHT22;3087;48.392;10.836;2024-03-06T13:55:52;9.40;99.90
6114;DHT22;3087;48.392;10.836;2024-03-06T13:58:18;9.30;99.90
6114;DHT22;3087;48.392;10.836;2024-03-06T14:00:44;9.90;99.90
6114;DHT22;3087;48.392;10.836;2024-03-06T14:03:10;9.20;99.90
6114;DHT22;3087;48.392;10.836;2024-03-06T14:05:37;9.20;99.90
6114;DHT22;3087;48.392;10.836;2024-03-06T14:08:03;10.80;99.90
6114;DHT22;3087;48.392;10.836;2024-03-06T14:10:29;9.20;99.90
6114;DHT22;3087;48.392;10.836;2024-03-06T14:12:59;9.20;99.90
6114;DHT22;3087;48.392;10.836;2024-03-06T14:15:25;9.30;99.90
6114;DHT22;3087;48.392;10.836;2024-03-06T14:17:52;10.90;99.90
6114;DHT22;3087;48.392;10.836;2024-03-06T14:20:20;9.60;99.90
6114;DHT22;3087;48.392;10.836;2024-03-06T14:22:45;9.40;99.90
6114;DHT22;3087;48.392;10.836;2024-03-06T14:25:11;9.40;99.90
6114;DHT22;3087;48.392;10.836;2024-03-06T14:27:37;9.20;99.90
6114;DHT22;3087;48.392;10.836;2024-03-06T14:30:07;8.60;99.90
6114;DHT22;3087;48.392;10.836;2024-03-06T14:32:33;7.80;99.90
6114;DHT22;3087;48.392;10.836;2024-03-06T14:34:59;7.30;99.90
6114;DHT22;3087;48.392;10.836;2024-03-06T14:37:24;7.00;99.90
6114;DHT22;3087;48.392;10.836;2024-03-06T14:39:50;6.80;99.90
6114;DHT22;3087;48.392;10.836;2024-03-06T14:42:16;6.80;99.90
6114;DHT22;3087;48.392;10.836;2024-03-06T14:44:42;6.60;99.90
6114;DHT22;3087;48.392;10.836;2024-03-06T14:47:09;6.60;99.90
6114;DHT22;3087;48.392;10.836;2024-03-06T14:49:35;6.50;99.90
6114;DHT22;3087;48.392;10.836;2024-03-06T14:52:01;6.50;99.90
6114;DHT22;3087;48.392;10.836;2024-03-06T14:54:28;6.50;99.90
6114;DHT22;3087;48.392;10.836;2024-03-06T14:56:53;6.50;99.90
6114;DHT22;3087;48.392;10.836;2024-03-06T14:59:20;6.40;99.90
6114;DHT22;3087;48.392;10.836;2024-03-06T15:01:46;6.90;99.90
6114;DHT22;3087;48.392;10.836;2024-03-06T15:04:13;6.40;99.90
6114;DHT22;3087;48.392;10.836;2024-03-06T15:06:39;6.40;99.90
6114;DHT22;3087;48.392;10.836;2024-03-06T15:09:05;6.50;99.90
6114;DHT22;3087;48.392;10.836;2024-03-06T15:11:31;7.60;99.90
6114;DHT22;3087;48.392;10.836;2024-03-06T15:14:01;6.60;99.90
6114;DHT22;3087;48.392;10.836;2024-03-06T15:16:26;6.60;99.90
6114;DHT22;3087;48.392;10.836;2024-03-06T15:18:52;6.50;99.90
6114;DHT22;3087;48.392;10.836;2024-03-06T15:21:19;6.60;99.90
6114;DHT22;3087;48.392;10.836;2024-03-06T15:23:44;6.60;99.90
6114;DHT22;3087;48.392;10.836;2024-03-06T15:26:10;6.60;99.90
6114;DHT22;3087;48.392;10.836;2024-03-06T15:28:36;6.70;99.90
6114;DHT22;3087;48.392;10.836;2024-03-06T15:31:02;6.70;99.90
6114;DHT22;3087;48.392;10.836;2024-03-06T15:33:30;6.70;99.90
6114;DHT22;3087;48.392;10.836;2024-03-06T15:35:56;6.70;99.90
6114;DHT22;3087;48.392;10.836;2024-03-06T15:38:24;6.70;99.90
6114;DHT22;3087;48.392;10.836;2024-03-06T15:40:49;6.70;99.90
6114;DHT22;3087;48.392;10.836;2024-03-06T15:43:16;7.90;99.90
6114;DHT22;3087;48.392;10.836;2024-03-06T15:45:43;6.90;99.90
6114;DHT22;3087;48.392;10.836;2024-03-06T15:48:08;6.90;99.90
6114;DHT22;3087;48.392;10.836;2024-03-06T15:50:39;7.00;99.90
6114;DHT22;3087;48.392;10.836;2024-03-06T15:53:05;7.00;99.90
6114;DHT22;3087;48.392;10.836;2024-03-06T15:55:33;7.20;99.90
6114;DHT22;3087;48.392;10.836;2024-03-06T15:58:00;7.20;99.90
6114;DHT22;3087;48.392;10.836;2024-03-06T16:00:26;7.20;99.90
6114;DHT22;3087;48.392;10.836;2024-03-06T16:02:53;7.40;99.90
6114;DHT22;3087;48.392;10.836;2024-03-06T16:05:18;7.30;99.90
6114;DHT22;3087;48.392;10.836;2024-03-06T16:07:44;7.40;99.90
6114;DHT22;3087;48.392;10.836;2024-03-06T16:10:10;8.00;99.90